createdAt,value
2022-11-25T00:04:11.905Z,1.43
2022-11-25T00:09:14.626Z,1.34
2022-11-25T00:14:17.280Z,1.35
2022-11-25T00:19:20.891Z,1.39
2022-11-25T00:24:23.678Z,1.40
2022-11-25T00:29:26.309Z,1.28
2022-11-25T00:34:28.937Z,1.22
2022-11-25T00:39:31.590Z,1.13
2022-11-25T00:44:38.645Z,1.05
2022-11-25T00:49:41.636Z,1.02
2022-11-25T00:54:44.830Z,1.00
2022-11-25T00:59:47.521Z,1.00
2022-11-25T01:04:50.589Z,1.05
2022-11-25T01:09:54.836Z,0.99
2022-11-25T01:14:57.521Z,0.99
2022-11-25T01:20:02.390Z,1.02
2022-11-25T01:25:05.143Z,1.11
2022-11-25T01:30:08.560Z,0.81
2022-11-25T01:35:11.232Z,0.73
2022-11-25T01:40:14.911Z,0.64
2022-11-25T01:45:18.507Z,0.63
2022-11-25T01:50:21.209Z,0.77
2022-11-25T01:55:23.852Z,0.94
2022-11-25T02:00:26.514Z,0.91
2022-11-25T02:05:33.666Z,0.84
2022-11-25T02:10:36.805Z,0.89
2022-11-25T02:15:39.699Z,0.85
2022-11-25T02:20:42.365Z,0.96
2022-11-25T02:25:44.949Z,0.93
2022-11-25T02:30:47.661Z,1.04
2022-11-25T02:35:51.289Z,1.06
2022-11-25T02:40:54.331Z,1.10
2022-11-25T02:45:57.145Z,1.11
2022-11-25T02:50:59.941Z,1.07
2022-11-25T02:56:02.581Z,1.00
2022-11-25T03:01:05.415Z,1.07
2022-11-25T03:06:08.238Z,1.12
2022-11-25T03:11:11.208Z,1.11
2022-11-25T03:16:13.846Z,1.16
2022-11-25T03:21:16.524Z,1.17
2022-11-25T03:26:19.128Z,1.19
2022-11-25T03:31:21.804Z,1.34
2022-11-25T03:36:24.470Z,1.31
2022-11-25T03:41:36.999Z,1.28
2022-11-25T03:46:39.760Z,1.27
2022-11-25T03:51:42.495Z,1.19
2022-11-25T03:56:47.165Z,1.24
2022-11-25T04:01:49.892Z,1.25
2022-11-25T04:06:52.511Z,1.28
2022-11-25T04:12:12.929Z,1.30
2022-11-25T04:17:15.520Z,1.31
2022-11-25T04:22:18.212Z,1.28
2022-11-25T04:27:20.930Z,1.32
2022-11-25T04:32:23.525Z,1.21
2022-11-25T04:37:26.168Z,1.29
2022-11-25T04:42:36.453Z,1.32
2022-11-25T04:47:39.200Z,1.26
2022-11-25T04:52:41.837Z,1.27
2022-11-25T04:57:44.492Z,1.30
2022-11-25T05:02:47.129Z,1.33
2022-11-25T05:07:49.796Z,1.31
2022-11-25T05:12:52.439Z,1.47
2022-11-25T05:17:57.814Z,1.43
2022-11-25T05:23:00.464Z,1.33
2022-11-25T05:28:03.661Z,1.38
2022-11-25T05:33:06.872Z,1.34
2022-11-25T05:38:10.027Z,1.38
2022-11-25T05:43:15.096Z,1.41
2022-11-25T05:48:18.448Z,1.38
2022-11-25T05:53:21.683Z,1.45
2022-11-25T05:58:25.079Z,1.46
2022-11-25T06:03:28.284Z,1.38
2022-11-25T06:08:31.074Z,1.35
2022-11-25T06:13:34.800Z,1.40
2022-11-25T06:18:37.631Z,1.53
2022-11-25T06:23:40.275Z,1.57
2022-11-25T06:28:42.868Z,1.70
2022-11-25T06:33:45.878Z,1.78
2022-11-25T06:38:49.036Z,1.86
2022-11-25T06:43:52.223Z,1.93
2022-11-25T06:49:01.353Z,1.91
2022-11-25T06:54:06.089Z,1.89
2022-11-25T06:59:13.573Z,1.87
2022-11-25T07:04:16.739Z,2.01
2022-11-25T07:09:20.999Z,2.23
2022-11-25T07:14:24.516Z,2.39
2022-11-25T07:19:33.458Z,2.51
2022-11-25T07:24:37.253Z,2.68
2022-11-25T07:30:19.184Z,2.80
2022-11-25T07:35:04.053Z,2.98
2022-11-25T07:40:08.024Z,3.04
2022-11-25T07:45:11.466Z,3.13
2022-11-25T07:50:14.952Z,3.29
2022-11-25T07:55:18.500Z,3.40
2022-11-25T08:00:22.644Z,3.55
2022-11-25T08:05:25.224Z,3.60
2022-11-25T08:10:27.858Z,3.77
2022-11-25T08:15:41.659Z,3.89
2022-11-25T08:20:44.948Z,4.03
2022-11-25T08:25:50.676Z,4.13
2022-11-25T08:30:54.104Z,4.34
2022-11-25T08:35:57.225Z,4.47
2022-11-25T08:41:12.360Z,4.59
2022-11-25T08:46:17.046Z,4.61
2022-11-25T08:51:19.855Z,4.87
2022-11-25T08:56:26.291Z,4.95
2022-11-25T09:01:29.770Z,5.18
2022-11-25T09:06:32.995Z,5.21
2022-11-25T09:11:36.193Z,5.33
2022-11-25T09:16:39.504Z,5.42
2022-11-25T09:21:42.780Z,5.25
2022-11-25T09:26:45.894Z,4.91
2022-11-25T09:31:54.511Z,4.89
2022-11-25T09:36:58.165Z,4.91
2022-11-25T09:42:21.095Z,4.99
2022-11-25T09:47:24.504Z,4.89
2022-11-25T09:52:28.332Z,4.93
2022-11-25T09:57:31.423Z,5.02
2022-11-25T10:02:34.684Z,5.03
2022-11-25T10:07:37.847Z,5.09
2022-11-25T10:12:40.951Z,5.10
2022-11-25T10:17:44.568Z,5.22
2022-11-25T10:22:47.771Z,5.24
2022-11-25T10:27:50.883Z,5.38
2022-11-25T10:32:57.882Z,5.47
2022-11-25T10:38:05.192Z,5.57
2022-11-25T10:43:08.473Z,5.77
2022-11-25T10:48:11.592Z,5.79
2022-11-25T10:53:14.748Z,6.10
2022-11-25T10:58:23.896Z,6.16
2022-11-25T11:03:27.246Z,6.25
2022-11-25T11:08:30.369Z,6.33
2022-11-25T11:13:33.764Z,6.46
2022-11-25T11:18:36.972Z,6.87
2022-11-25T11:23:40.083Z,6.87
2022-11-25T11:28:44.827Z,7.31
2022-11-25T11:33:48.227Z,7.46
2022-11-25T11:38:51.446Z,7.18
2022-11-25T11:43:56.615Z,6.98
2022-11-25T11:48:59.894Z,7.17
2022-11-25T11:54:03.066Z,7.66
2022-11-25T11:59:05.721Z,8.33
2022-11-25T12:04:09.236Z,8.48
2022-11-25T12:09:11.928Z,8.13
2022-11-25T12:14:21.136Z,7.95
2022-11-25T12:19:23.691Z,7.70
2022-11-25T12:24:26.560Z,7.75
2022-11-25T12:29:38.130Z,7.74
2022-11-25T12:34:41.090Z,8.05
2022-11-25T12:39:43.760Z,8.46
2022-11-25T12:44:46.492Z,9.14
2022-11-25T12:49:49.179Z,9.72
2022-11-25T12:54:51.824Z,9.86
2022-11-25T13:00:06.203Z,9.70
2022-11-25T13:05:39.418Z,9.82
2022-11-25T13:10:40.585Z,10.03
2022-11-25T13:15:43.649Z,9.95
2022-11-25T13:20:46.535Z,10.02
2022-11-25T13:25:49.224Z,9.97
2022-11-25T13:30:52.093Z,9.74
2022-11-25T13:35:54.740Z,9.60
2022-11-25T13:40:57.480Z,9.49
2022-11-25T13:46:00.335Z,9.56
2022-11-25T13:51:10.962Z,9.44
2022-11-25T13:56:14.229Z,9.56
2022-11-25T14:01:16.839Z,9.58
2022-11-25T14:06:19.580Z,9.45
2022-11-25T14:11:22.260Z,9.28
2022-11-25T14:16:24.931Z,9.22
2022-11-25T14:21:27.590Z,9.19
2022-11-25T14:26:48.799Z,9.11
2022-11-25T14:31:52.810Z,9.09
2022-11-25T14:36:55.489Z,8.81
2022-11-25T14:41:58.091Z,8.33
2022-11-25T14:47:00.805Z,7.96
2022-11-25T14:52:04.498Z,7.67
2022-11-25T14:57:07.265Z,7.43
2022-11-25T15:02:10.028Z,7.24
2022-11-25T15:07:12.720Z,7.18
2022-11-25T15:12:17.389Z,7.01
2022-11-25T15:17:20.086Z,6.83
2022-11-25T15:22:24.273Z,6.80
2022-11-25T15:27:28.353Z,6.82
2022-11-25T15:32:31.425Z,6.74
2022-11-25T15:37:34.385Z,6.74
2022-11-25T15:42:37.023Z,6.75
2022-11-25T15:47:40.030Z,6.63
2022-11-25T15:52:42.632Z,6.63
2022-11-25T15:57:46.036Z,6.64
2022-11-25T16:02:49.148Z,6.65
2022-11-25T16:07:51.990Z,6.57
2022-11-25T16:12:54.851Z,6.58
2022-11-25T16:18:11.715Z,6.56
2022-11-25T16:23:20.209Z,6.49
2022-11-25T16:28:23.324Z,6.41
2022-11-25T16:33:26.009Z,6.38
2022-11-25T16:38:28.624Z,6.36
2022-11-25T16:43:31.220Z,6.34
2022-11-25T16:48:33.899Z,6.39
2022-11-25T16:53:36.594Z,6.41
2022-11-25T16:58:41.626Z,6.34
2022-11-25T17:03:44.392Z,6.30
2022-11-25T17:08:46.975Z,6.27
2022-11-25T17:13:50.430Z,6.26
2022-11-25T17:18:55.459Z,6.23
2022-11-25T17:23:58.104Z,6.23
2022-11-25T17:29:00.685Z,6.23
2022-11-25T17:34:03.283Z,6.15
2022-11-25T17:39:05.963Z,6.05
2022-11-25T17:44:08.712Z,6.12
2022-11-25T17:49:11.507Z,6.06
2022-11-25T17:54:14.188Z,6.07
2022-11-25T17:59:17.323Z,6.08
2022-11-25T18:04:20.078Z,6.08
2022-11-25T18:09:22.787Z,6.04
2022-11-25T18:14:25.457Z,6.09
2022-11-25T18:19:28.128Z,5.97
2022-11-25T18:24:30.859Z,5.87
2022-11-25T18:29:33.952Z,5.89
2022-11-25T18:34:37.121Z,5.78
2022-11-25T18:39:49.959Z,5.81
2022-11-25T18:44:52.722Z,5.82
2022-11-25T18:49:56.579Z,5.73
2022-11-25T18:54:59.363Z,5.72
2022-11-25T19:00:31.649Z,5.65
2022-11-25T19:05:29.238Z,5.71
2022-11-25T19:10:31.919Z,5.60
2022-11-25T19:15:37.415Z,5.67
2022-11-25T19:20:40.692Z,5.54
2022-11-25T19:25:43.291Z,5.54
2022-11-25T19:30:45.922Z,5.53
2022-11-25T19:35:48.527Z,5.50
2022-11-25T19:40:51.251Z,5.37
2022-11-25T19:45:54.119Z,5.24
2022-11-25T19:50:59.900Z,5.12
2022-11-25T19:56:07.483Z,5.21
2022-11-25T20:01:10.730Z,5.13
2022-11-25T20:06:17.676Z,5.06
2022-11-25T20:11:20.439Z,4.95
2022-11-25T20:16:23.466Z,4.83
2022-11-25T20:21:26.459Z,4.70
2022-11-25T20:26:29.657Z,4.60
2022-11-25T20:31:32.477Z,4.46
2022-11-25T20:36:38.834Z,4.45
2022-11-25T20:41:41.548Z,4.43
2022-11-25T20:46:44.936Z,4.45
2022-11-25T20:51:48.536Z,4.49
2022-11-25T20:56:51.178Z,4.54
2022-11-25T21:01:54.609Z,4.46
2022-11-25T21:06:57.697Z,4.49
2022-11-25T21:12:01.010Z,4.61
2022-11-25T21:17:03.843Z,4.72
2022-11-25T21:22:06.763Z,4.85
2022-11-25T21:27:12.819Z,4.85
2022-11-25T21:32:16.973Z,4.96
2022-11-25T21:37:19.805Z,4.98
2022-11-25T21:42:22.565Z,5.03
2022-11-25T21:47:25.353Z,5.06
2022-11-25T21:52:28.207Z,5.03
2022-11-25T21:57:30.967Z,5.00
2022-11-25T22:02:34.381Z,5.05
2022-11-25T22:07:37.175Z,5.08
2022-11-25T22:12:41.541Z,5.10
2022-11-25T22:17:44.673Z,5.21
2022-11-25T22:22:47.819Z,5.19
2022-11-25T22:27:50.525Z,5.25
2022-11-25T22:32:53.154Z,5.26
2022-11-25T22:37:55.959Z,5.31
2022-11-25T22:43:01.031Z,5.35
2022-11-25T22:48:03.658Z,5.40
2022-11-25T22:53:06.434Z,5.37
2022-11-25T22:58:09.105Z,5.42
2022-11-25T23:03:11.795Z,5.37
2022-11-25T23:08:14.387Z,5.36
2022-11-25T23:13:18.448Z,5.38
2022-11-25T23:18:21.084Z,5.37
2022-11-25T23:23:26.957Z,5.34
2022-11-25T23:28:29.843Z,5.34
2022-11-25T23:33:32.587Z,5.33
2022-11-25T23:38:35.488Z,5.33
2022-11-25T23:43:38.283Z,5.29
2022-11-25T23:48:41.343Z,5.28
2022-11-25T23:53:44.071Z,5.26
2022-11-25T23:58:46.826Z,5.20
